sensor_id;sensor_type;location;lat;lon;timestamp;P1;durP1;ratioP1;P2;durP2;ratioP2
68484;SDS011;55472;50.060;21.960;2022-07-23T00:02:06;15.77;;;9.38;;
68484;SDS011;55472;50.060;21.960;2022-07-23T00:04:32;13.45;;;8.30;;
68484;SDS011;55472;50.060;21.960;2022-07-23T00:06:59;12.50;;;8.25;;
68484;SDS011;55472;50.060;21.960;2022-07-23T00:09:25;13.93;;;7.70;;
68484;SDS011;55472;50.060;21.960;2022-07-23T00:11:53;15.38;;;9.02;;
68484;SDS011;55472;50.060;21.960;2022-07-23T00:14:19;16.30;;;9.20;;
68484;SDS011;55472;50.060;21.960;2022-07-23T00:16:45;16.02;;;9.50;;
68484;SDS011;55472;50.060;21.960;2022-07-23T00:19:11;17.37;;;9.77;;
68484;SDS011;55472;50.060;21.960;2022-07-23T00:21:37;24.50;;;14.52;;
68484;SDS011;55472;50.060;21.960;2022-07-23T00:24:03;23.67;;;13.45;;
68484;SDS011;55472;50.060;21.960;2022-07-23T00:26:29;16.42;;;10.38;;
68484;SDS011;55472;50.060;21.960;2022-07-23T00:28:55;19.40;;;12.07;;
68484;SDS011;55472;50.060;21.960;2022-07-23T00:31:21;16.23;;;9.43;;
68484;SDS011;55472;50.060;21.960;2022-07-23T00:33:47;16.00;;;9.25;;
68484;SDS011;55472;50.060;21.960;2022-07-23T00:36:13;14.57;;;9.00;;
68484;SDS011;55472;50.060;21.960;2022-07-23T00:38:39;16.43;;;9.57;;
68484;SDS011;55472;50.060;21.960;2022-07-23T00:41:05;17.63;;;9.50;;
68484;SDS011;55472;50.060;21.960;2022-07-23T00:43:31;17.08;;;8.60;;
68484;SDS011;55472;50.060;21.960;2022-07-23T00:45:59;15.30;;;8.97;;
68484;SDS011;55472;50.060;21.960;2022-07-23T00:48:25;18.67;;;10.57;;
68484;SDS011;55472;50.060;21.960;2022-07-23T00:50:51;15.88;;;9.05;;
68484;SDS011;55472;50.060;21.960;2022-07-23T00:53:17;15.82;;;8.30;;
68484;SDS011;55472;50.060;21.960;2022-07-23T00:55:45;15.47;;;8.40;;
68484;SDS011;55472;50.060;21.960;2022-07-23T00:58:12;13.32;;;8.20;;
68484;SDS011;55472;50.060;21.960;2022-07-23T01:00:38;14.52;;;8.02;;
68484;SDS011;55472;50.060;21.960;2022-07-23T01:03:04;20.55;;;8.48;;
68484;SDS011;55472;50.060;21.960;2022-07-23T01:05:30;17.10;;;7.73;;
68484;SDS011;55472;50.060;21.960;2022-07-23T01:07:56;15.40;;;8.30;;
68484;SDS011;55472;50.060;21.960;2022-07-23T01:10:22;14.20;;;7.18;;
68484;SDS011;55472;50.060;21.960;2022-07-23T01:12:59;16.38;;;9.05;;
68484;SDS011;55472;50.060;21.960;2022-07-23T01:15:33;11.90;;;7.60;;
68484;SDS011;55472;50.060;21.960;2022-07-23T01:18:02;15.07;;;8.02;;
68484;SDS011;55472;50.060;21.960;2022-07-23T01:20:29;13.70;;;7.75;;
68484;SDS011;55472;50.060;21.960;2022-07-23T01:22:56;14.55;;;8.35;;
68484;SDS011;55472;50.060;21.960;2022-07-23T01:25:22;11.57;;;7.15;;
68484;SDS011;55472;50.060;21.960;2022-07-23T01:27:48;12.07;;;7.83;;
68484;SDS011;55472;50.060;21.960;2022-07-23T01:30:17;10.68;;;7.03;;
68484;SDS011;55472;50.060;21.960;2022-07-23T01:32:43;12.05;;;6.47;;
68484;SDS011;55472;50.060;21.960;2022-07-23T01:35:09;11.35;;;6.60;;
68484;SDS011;55472;50.060;21.960;2022-07-23T01:37:36;13.65;;;7.85;;
68484;SDS011;55472;50.060;21.960;2022-07-23T01:40:03;11.50;;;6.80;;
68484;SDS011;55472;50.060;21.960;2022-07-23T01:42:30;11.88;;;6.95;;
68484;SDS011;55472;50.060;21.960;2022-07-23T01:44:56;12.65;;;7.75;;
68484;SDS011;55472;50.060;21.960;2022-07-23T01:47:22;11.07;;;7.03;;
68484;SDS011;55472;50.060;21.960;2022-07-23T01:49:48;15.03;;;7.47;;
68484;SDS011;55472;50.060;21.960;2022-07-23T01:52:14;10.77;;;6.68;;
68484;SDS011;55472;50.060;21.960;2022-07-23T01:54:41;13.85;;;7.70;;
68484;SDS011;55472;50.060;21.960;2022-07-23T01:57:08;11.82;;;7.13;;
68484;SDS011;55472;50.060;21.960;2022-07-23T01:59:34;13.48;;;6.95;;
68484;SDS011;55472;50.060;21.960;2022-07-23T02:02:01;11.40;;;6.67;;
68484;SDS011;55472;50.060;21.960;2022-07-23T02:04:28;11.20;;;6.45;;
68484;SDS011;55472;50.060;21.960;2022-07-23T02:06:54;10.60;;;6.65;;
68484;SDS011;55472;50.060;21.960;2022-07-23T02:09:20;15.95;;;7.10;;
68484;SDS011;55472;50.060;21.960;2022-07-23T02:11:46;12.77;;;7.03;;
68484;SDS011;55472;50.060;21.960;2022-07-23T02:14:12;14.98;;;8.57;;
68484;SDS011;55472;50.060;21.960;2022-07-23T02:16:38;12.75;;;7.78;;
68484;SDS011;55472;50.060;21.960;2022-07-23T02:19:04;12.45;;;7.20;;
68484;SDS011;55472;50.060;21.960;2022-07-23T02:21:30;13.80;;;7.60;;
68484;SDS011;55472;50.060;21.960;2022-07-23T02:23:56;10.25;;;6.40;;
68484;SDS011;55472;50.060;21.960;2022-07-23T02:26:22;12.00;;;6.65;;
68484;SDS011;55472;50.060;21.960;2022-07-23T02:28:48;13.80;;;7.60;;
68484;SDS011;55472;50.060;21.960;2022-07-23T02:31:14;11.90;;;6.60;;
68484;SDS011;55472;50.060;21.960;2022-07-23T02:33:40;11.02;;;6.53;;
68484;SDS011;55472;50.060;21.960;2022-07-23T02:36:06;10.48;;;6.50;;
68484;SDS011;55472;50.060;21.960;2022-07-23T02:38:32;12.47;;;6.90;;
68484;SDS011;55472;50.060;21.960;2022-07-23T02:40:58;12.15;;;7.10;;
68484;SDS011;55472;50.060;21.960;2022-07-23T02:43:23;13.95;;;6.80;;
68484;SDS011;55472;50.060;21.960;2022-07-23T02:45:49;14.27;;;7.30;;
68484;SDS011;55472;50.060;21.960;2022-07-23T02:48:15;13.40;;;7.70;;
68484;SDS011;55472;50.060;21.960;2022-07-23T02:50:41;12.73;;;7.07;;
68484;SDS011;55472;50.060;21.960;2022-07-23T02:53:07;14.60;;;7.55;;
68484;SDS011;55472;50.060;21.960;2022-07-23T02:55:33;14.17;;;7.43;;
68484;SDS011;55472;50.060;21.960;2022-07-23T02:57:59;11.73;;;7.50;;
68484;SDS011;55472;50.060;21.960;2022-07-23T03:00:25;12.10;;;6.72;;
68484;SDS011;55472;50.060;21.960;2022-07-23T03:02:51;9.93;;;6.03;;
68484;SDS011;55472;50.060;21.960;2022-07-23T03:05:17;9.67;;;5.60;;
68484;SDS011;55472;50.060;21.960;2022-07-23T03:07:43;9.63;;;6.18;;
68484;SDS011;55472;50.060;21.960;2022-07-23T03:10:09;14.15;;;7.28;;
68484;SDS011;55472;50.060;21.960;2022-07-23T03:12:35;13.10;;;6.97;;
68484;SDS011;55472;50.060;21.960;2022-07-23T03:15:01;11.95;;;7.10;;
68484;SDS011;55472;50.060;21.960;2022-07-23T03:17:26;12.13;;;7.00;;
68484;SDS011;55472;50.060;21.960;2022-07-23T03:19:52;9.93;;;6.07;;
68484;SDS011;55472;50.060;21.960;2022-07-23T03:22:18;10.13;;;5.60;;
68484;SDS011;55472;50.060;21.960;2022-07-23T03:24:44;9.48;;;5.65;;
68484;SDS011;55472;50.060;21.960;2022-07-23T03:27:19;10.48;;;6.07;;
68484;SDS011;55472;50.060;21.960;2022-07-23T03:29:54;12.30;;;6.35;;
68484;SDS011;55472;50.060;21.960;2022-07-23T03:32:22;10.10;;;6.07;;
68484;SDS011;55472;50.060;21.960;2022-07-23T03:34:49;10.68;;;6.65;;
68484;SDS011;55472;50.060;21.960;2022-07-23T03:37:16;11.05;;;6.63;;
68484;SDS011;55472;50.060;21.960;2022-07-23T03:39:43;11.73;;;7.20;;
68484;SDS011;55472;50.060;21.960;2022-07-23T03:42:09;12.68;;;6.43;;
68484;SDS011;55472;50.060;21.960;2022-07-23T03:44:35;14.60;;;7.37;;
68484;SDS011;55472;50.060;21.960;2022-07-23T03:47:05;11.32;;;6.35;;
68484;SDS011;55472;50.060;21.960;2022-07-23T03:49:32;11.00;;;6.78;;
68484;SDS011;55472;50.060;21.960;2022-07-23T03:51:58;11.68;;;6.90;;
68484;SDS011;55472;50.060;21.960;2022-07-23T03:54:24;10.93;;;7.27;;
68484;SDS011;55472;50.060;21.960;2022-07-23T03:56:50;13.70;;;7.05;;
68484;SDS011;55472;50.060;21.960;2022-07-23T03:59:16;12.05;;;6.50;;
68484;SDS011;55472;50.060;21.960;2022-07-23T04:01:42;14.70;;;6.95;;
68484;SDS011;55472;50.060;21.960;2022-07-23T04:04:08;13.37;;;7.20;;
68484;SDS011;55472;50.060;21.960;2022-07-23T04:06:34;15.38;;;7.45;;
68484;SDS011;55472;50.060;21.960;2022-07-23T04:09:01;14.38;;;7.72;;
68484;SDS011;55472;50.060;21.960;2022-07-23T04:11:27;12.90;;;7.70;;
68484;SDS011;55472;50.060;21.960;2022-07-23T04:13:53;13.90;;;8.27;;
68484;SDS011;55472;50.060;21.960;2022-07-23T04:16:19;13.03;;;8.13;;
68484;SDS011;55472;50.060;21.960;2022-07-23T04:18:45;15.77;;;8.43;;
68484;SDS011;55472;50.060;21.960;2022-07-23T04:21:11;17.88;;;8.55;;
68484;SDS011;55472;50.060;21.960;2022-07-23T04:23:36;16.20;;;8.97;;
68484;SDS011;55472;50.060;21.960;2022-07-23T04:26:02;14.02;;;7.95;;
68484;SDS011;55472;50.060;21.960;2022-07-23T04:28:28;14.20;;;7.40;;
68484;SDS011;55472;50.060;21.960;2022-07-23T04:30:58;15.88;;;8.32;;
68484;SDS011;55472;50.060;21.960;2022-07-23T04:33:24;13.23;;;7.83;;
68484;SDS011;55472;50.060;21.960;2022-07-23T04:35:50;12.88;;;7.95;;
68484;SDS011;55472;50.060;21.960;2022-07-23T04:38:16;12.05;;;6.93;;
68484;SDS011;55472;50.060;21.960;2022-07-23T04:40:42;13.65;;;7.60;;
68484;SDS011;55472;50.060;21.960;2022-07-23T04:43:08;15.13;;;7.50;;
68484;SDS011;55472;50.060;21.960;2022-07-23T04:45:34;13.07;;;6.93;;
68484;SDS011;55472;50.060;21.960;2022-07-23T04:47:59;11.55;;;6.90;;
68484;SDS011;55472;50.060;21.960;2022-07-23T04:50:26;11.30;;;6.50;;
68484;SDS011;55472;50.060;21.960;2022-07-23T04:52:52;12.10;;;6.85;;
68484;SDS011;55472;50.060;21.960;2022-07-23T04:55:18;9.88;;;6.70;;
68484;SDS011;55472;50.060;21.960;2022-07-23T04:57:44;11.45;;;7.43;;
68484;SDS011;55472;50.060;21.960;2022-07-23T05:00:10;11.93;;;7.00;;
68484;SDS011;55472;50.060;21.960;2022-07-23T05:02:40;13.68;;;6.55;;
68484;SDS011;55472;50.060;21.960;2022-07-23T05:05:11;12.25;;;6.45;;
68484;SDS011;55472;50.060;21.960;2022-07-23T05:07:38;12.02;;;6.45;;
68484;SDS011;55472;50.060;21.960;2022-07-23T05:10:04;12.33;;;6.97;;
68484;SDS011;55472;50.060;21.960;2022-07-23T05:12:30;11.47;;;7.10;;
68484;SDS011;55472;50.060;21.960;2022-07-23T05:14:56;11.50;;;6.75;;
68484;SDS011;55472;50.060;21.960;2022-07-23T05:17:22;12.82;;;6.72;;
68484;SDS011;55472;50.060;21.960;2022-07-23T05:19:48;11.50;;;6.67;;
68484;SDS011;55472;50.060;21.960;2022-07-23T05:22:13;13.15;;;6.25;;
68484;SDS011;55472;50.060;21.960;2022-07-23T05:24:39;13.68;;;6.57;;
68484;SDS011;55472;50.060;21.960;2022-07-23T05:27:05;15.43;;;6.83;;
68484;SDS011;55472;50.060;21.960;2022-07-23T05:29:31;13.48;;;6.47;;
68484;SDS011;55472;50.060;21.960;2022-07-23T05:31:57;11.10;;;7.15;;
68484;SDS011;55472;50.060;21.960;2022-07-23T05:34:23;12.23;;;7.05;;
68484;SDS011;55472;50.060;21.960;2022-07-23T05:36:49;11.90;;;6.80;;
68484;SDS011;55472;50.060;21.960;2022-07-23T05:39:15;15.50;;;7.28;;
68484;SDS011;55472;50.060;21.960;2022-07-23T05:41:41;11.70;;;7.20;;
68484;SDS011;55472;50.060;21.960;2022-07-23T05:44:07;13.90;;;6.83;;
68484;SDS011;55472;50.060;21.960;2022-07-23T05:46:32;13.80;;;7.20;;
68484;SDS011;55472;50.060;21.960;2022-07-23T05:48:59;12.07;;;7.75;;
68484;SDS011;55472;50.060;21.960;2022-07-23T05:51:24;12.07;;;7.18;;
68484;SDS011;55472;50.060;21.960;2022-07-23T05:53:50;14.97;;;7.20;;
68484;SDS011;55472;50.060;21.960;2022-07-23T05:56:19;10.75;;;7.32;;
68484;SDS011;55472;50.060;21.960;2022-07-23T05:58:45;13.45;;;6.72;;
68484;SDS011;55472;50.060;21.960;2022-07-23T06:01:10;13.55;;;7.18;;
68484;SDS011;55472;50.060;21.960;2022-07-23T06:03:37;10.75;;;7.45;;
68484;SDS011;55472;50.060;21.960;2022-07-23T06:06:06;12.60;;;6.80;;
68484;SDS011;55472;50.060;21.960;2022-07-23T06:08:32;11.95;;;7.38;;
68484;SDS011;55472;50.060;21.960;2022-07-23T06:10:58;14.93;;;7.60;;
68484;SDS011;55472;50.060;21.960;2022-07-23T06:13:24;12.60;;;7.50;;
68484;SDS011;55472;50.060;21.960;2022-07-23T06:15:50;12.20;;;7.67;;
68484;SDS011;55472;50.060;21.960;2022-07-23T06:18:16;12.50;;;7.47;;
68484;SDS011;55472;50.060;21.960;2022-07-23T06:20:42;13.27;;;7.78;;
68484;SDS011;55472;50.060;21.960;2022-07-23T06:23:08;14.37;;;8.13;;
68484;SDS011;55472;50.060;21.960;2022-07-23T06:25:34;13.15;;;7.82;;
68484;SDS011;55472;50.060;21.960;2022-07-23T06:27:59;12.25;;;7.55;;
68484;SDS011;55472;50.060;21.960;2022-07-23T06:30:25;14.27;;;8.27;;
68484;SDS011;55472;50.060;21.960;2022-07-23T06:32:51;12.97;;;7.60;;
68484;SDS011;55472;50.060;21.960;2022-07-23T06:35:17;13.07;;;8.07;;
68484;SDS011;55472;50.060;21.960;2022-07-23T06:37:43;12.68;;;7.90;;
68484;SDS011;55472;50.060;21.960;2022-07-23T06:40:09;12.20;;;8.20;;
68484;SDS011;55472;50.060;21.960;2022-07-23T06:42:36;13.13;;;8.40;;
68484;SDS011;55472;50.060;21.960;2022-07-23T06:45:04;17.30;;;8.68;;
68484;SDS011;55472;50.060;21.960;2022-07-23T06:47:32;18.45;;;8.77;;
68484;SDS011;55472;50.060;21.960;2022-07-23T06:49:58;13.13;;;7.55;;
68484;SDS011;55472;50.060;21.960;2022-07-23T06:52:23;16.27;;;8.13;;
68484;SDS011;55472;50.060;21.960;2022-07-23T06:54:51;12.55;;;7.75;;
68484;SDS011;55472;50.060;21.960;2022-07-23T06:57:18;16.83;;;8.40;;
68484;SDS011;55472;50.060;21.960;2022-07-23T06:59:43;14.05;;;8.18;;
68484;SDS011;55472;50.060;21.960;2022-07-23T07:02:09;16.50;;;8.57;;
68484;SDS011;55472;50.060;21.960;2022-07-23T07:04:36;17.10;;;8.97;;
68484;SDS011;55472;50.060;21.960;2022-07-23T07:07:03;13.38;;;8.13;;
68484;SDS011;55472;50.060;21.960;2022-07-23T07:09:29;17.48;;;8.80;;
68484;SDS011;55472;50.060;21.960;2022-07-23T07:11:55;17.08;;;9.25;;
68484;SDS011;55472;50.060;21.960;2022-07-23T07:14:22;16.48;;;9.55;;
68484;SDS011;55472;50.060;21.960;2022-07-23T07:16:48;18.13;;;9.10;;
68484;SDS011;55472;50.060;21.960;2022-07-23T07:19:14;13.90;;;8.15;;
68484;SDS011;55472;50.060;21.960;2022-07-23T07:21:39;14.15;;;9.20;;
68484;SDS011;55472;50.060;21.960;2022-07-23T07:24:05;13.77;;;8.85;;
68484;SDS011;55472;50.060;21.960;2022-07-23T07:26:31;16.70;;;9.00;;
68484;SDS011;55472;50.060;21.960;2022-07-23T07:28:57;13.85;;;8.00;;
68484;SDS011;55472;50.060;21.960;2022-07-23T07:31:24;14.60;;;8.60;;
68484;SDS011;55472;50.060;21.960;2022-07-23T07:33:49;14.43;;;8.85;;
68484;SDS011;55472;50.060;21.960;2022-07-23T07:36:15;12.77;;;8.93;;
68484;SDS011;55472;50.060;21.960;2022-07-23T07:38:41;15.48;;;9.07;;
68484;SDS011;55472;50.060;21.960;2022-07-23T07:41:07;13.68;;;8.60;;
68484;SDS011;55472;50.060;21.960;2022-07-23T07:43:35;14.60;;;9.23;;
68484;SDS011;55472;50.060;21.960;2022-07-23T07:46:02;13.98;;;8.90;;
68484;SDS011;55472;50.060;21.960;2022-07-23T07:48:29;18.33;;;9.35;;
68484;SDS011;55472;50.060;21.960;2022-07-23T07:50:55;12.10;;;8.90;;
68484;SDS011;55472;50.060;21.960;2022-07-23T07:53:21;13.55;;;8.82;;
68484;SDS011;55472;50.060;21.960;2022-07-23T07:55:47;13.43;;;8.83;;
68484;SDS011;55472;50.060;21.960;2022-07-23T07:58:13;14.88;;;9.63;;
68484;SDS011;55472;50.060;21.960;2022-07-23T08:00:39;13.80;;;8.43;;
68484;SDS011;55472;50.060;21.960;2022-07-23T08:03:05;14.02;;;9.10;;
68484;SDS011;55472;50.060;21.960;2022-07-23T08:05:31;13.70;;;8.30;;
68484;SDS011;55472;50.060;21.960;2022-07-23T08:07:57;14.07;;;9.00;;
68484;SDS011;55472;50.060;21.960;2022-07-23T08:10:24;18.13;;;9.43;;
68484;SDS011;55472;50.060;21.960;2022-07-23T08:12:54;17.83;;;9.63;;
68484;SDS011;55472;50.060;21.960;2022-07-23T08:15:25;15.23;;;9.23;;
68484;SDS011;55472;50.060;21.960;2022-07-23T08:17:54;13.73;;;8.93;;
68484;SDS011;55472;50.060;21.960;2022-07-23T08:20:21;14.60;;;9.27;;
68484;SDS011;55472;50.060;21.960;2022-07-23T08:22:55;14.82;;;9.32;;
68484;SDS011;55472;50.060;21.960;2022-07-23T08:25:25;11.82;;;8.52;;
68484;SDS011;55472;50.060;21.960;2022-07-23T08:27:54;14.13;;;8.75;;
68484;SDS011;55472;50.060;21.960;2022-07-23T08:30:20;12.93;;;9.30;;
68484;SDS011;55472;50.060;21.960;2022-07-23T08:32:48;14.93;;;8.63;;
68484;SDS011;55472;50.060;21.960;2022-07-23T08:35:15;13.93;;;8.20;;
68484;SDS011;55472;50.060;21.960;2022-07-23T08:37:42;10.95;;;8.55;;
68484;SDS011;55472;50.060;21.960;2022-07-23T08:40:08;11.23;;;8.23;;
68484;SDS011;55472;50.060;21.960;2022-07-23T08:42:35;13.33;;;8.37;;
68484;SDS011;55472;50.060;21.960;2022-07-23T08:45:01;13.50;;;8.25;;
68484;SDS011;55472;50.060;21.960;2022-07-23T08:47:29;15.88;;;8.45;;
68484;SDS011;55472;50.060;21.960;2022-07-23T08:49:56;13.00;;;8.32;;
68484;SDS011;55472;50.060;21.960;2022-07-23T08:52:24;13.15;;;8.35;;
68484;SDS011;55472;50.060;21.960;2022-07-23T08:54:51;9.67;;;7.80;;
68484;SDS011;55472;50.060;21.960;2022-07-23T08:57:18;12.02;;;8.15;;
68484;SDS011;55472;50.060;21.960;2022-07-23T08:59:44;11.20;;;7.47;;
68484;SDS011;55472;50.060;21.960;2022-07-23T09:02:10;10.30;;;7.07;;
68484;SDS011;55472;50.060;21.960;2022-07-23T09:04:37;10.60;;;7.75;;
68484;SDS011;55472;50.060;21.960;2022-07-23T09:07:03;10.43;;;7.17;;
68484;SDS011;55472;50.060;21.960;2022-07-23T09:09:30;13.82;;;7.70;;
68484;SDS011;55472;50.060;21.960;2022-07-23T09:12:06;11.40;;;7.40;;
68484;SDS011;55472;50.060;21.960;2022-07-23T09:14:36;10.05;;;7.20;;
68484;SDS011;55472;50.060;21.960;2022-07-23T09:17:14;9.30;;;6.63;;
68484;SDS011;55472;50.060;21.960;2022-07-23T09:19:42;7.87;;;6.30;;
68484;SDS011;55472;50.060;21.960;2022-07-23T09:22:23;9.50;;;6.40;;
68484;SDS011;55472;50.060;21.960;2022-07-23T09:27:54;10.23;;;6.60;;
68484;SDS011;55472;50.060;21.960;2022-07-23T09:30:26;9.88;;;7.05;;
68484;SDS011;55472;50.060;21.960;2022-07-23T09:33:04;9.20;;;7.23;;
68484;SDS011;55472;50.060;21.960;2022-07-23T09:35:50;10.02;;;7.20;;
68484;SDS011;55472;50.060;21.960;2022-07-23T09:38:19;14.73;;;7.70;;
68484;SDS011;55472;50.060;21.960;2022-07-23T09:41:04;11.45;;;7.20;;
68484;SDS011;55472;50.060;21.960;2022-07-23T09:43:34;11.70;;;7.63;;
68484;SDS011;55472;50.060;21.960;2022-07-23T09:49:21;9.98;;;7.30;;
68484;SDS011;55472;50.060;21.960;2022-07-23T09:51:50;10.32;;;7.40;;
68484;SDS011;55472;50.060;21.960;2022-07-23T09:56:59;10.50;;;7.35;;
68484;SDS011;55472;50.060;21.960;2022-07-23T09:59:43;10.90;;;7.17;;
68484;SDS011;55472;50.060;21.960;2022-07-23T10:02:12;9.60;;;7.30;;
68484;SDS011;55472;50.060;21.960;2022-07-23T10:04:39;9.20;;;7.45;;
68484;SDS011;55472;50.060;21.960;2022-07-23T10:07:07;12.10;;;7.70;;
68484;SDS011;55472;50.060;21.960;2022-07-23T10:09:37;9.68;;;7.93;;
68484;SDS011;55472;50.060;21.960;2022-07-23T10:12:05;10.87;;;7.80;;
68484;SDS011;55472;50.060;21.960;2022-07-23T10:14:59;10.45;;;8.23;;
68484;SDS011;55472;50.060;21.960;2022-07-23T10:17:27;9.18;;;7.40;;
68484;SDS011;55472;50.060;21.960;2022-07-23T10:19:54;10.82;;;7.55;;
68484;SDS011;55472;50.060;21.960;2022-07-23T10:22:24;10.70;;;7.38;;
68484;SDS011;55472;50.060;21.960;2022-07-23T10:40:08;9.37;;;7.03;;
68484;SDS011;55472;50.060;21.960;2022-07-23T10:42:49;8.88;;;7.07;;
68484;SDS011;55472;50.060;21.960;2022-07-23T10:48:14;9.38;;;7.40;;
68484;SDS011;55472;50.060;21.960;2022-07-23T10:50:43;9.85;;;7.00;;
68484;SDS011;55472;50.060;21.960;2022-07-23T10:59:15;7.78;;;6.80;;
68484;SDS011;55472;50.060;21.960;2022-07-23T11:01:42;10.88;;;7.57;;
68484;SDS011;55472;50.060;21.960;2022-07-23T11:04:08;10.30;;;7.27;;
68484;SDS011;55472;50.060;21.960;2022-07-23T11:17:36;9.93;;;7.22;;
68484;SDS011;55472;50.060;21.960;2022-07-23T11:22:37;9.98;;;7.40;;
68484;SDS011;55472;50.060;21.960;2022-07-23T11:25:04;11.27;;;6.90;;
68484;SDS011;55472;50.060;21.960;2022-07-23T11:27:39;9.98;;;7.68;;
68484;SDS011;55472;50.060;21.960;2022-07-23T11:30:11;9.20;;;7.45;;
68484;SDS011;55472;50.060;21.960;2022-07-23T11:35:39;9.98;;;6.57;;
68484;SDS011;55472;50.060;21.960;2022-07-23T11:38:21;9.83;;;6.93;;
68484;SDS011;55472;50.060;21.960;2022-07-23T11:40:49;9.88;;;7.05;;
68484;SDS011;55472;50.060;21.960;2022-07-23T11:43:17;9.48;;;6.82;;
68484;SDS011;55472;50.060;21.960;2022-07-23T11:45:45;9.18;;;7.00;;
68484;SDS011;55472;50.060;21.960;2022-07-23T11:50:49;9.67;;;6.90;;
68484;SDS011;55472;50.060;21.960;2022-07-23T11:53:24;8.60;;;6.88;;
68484;SDS011;55472;50.060;21.960;2022-07-23T11:56:02;9.23;;;6.72;;
68484;SDS011;55472;50.060;21.960;2022-07-23T11:58:32;7.32;;;6.40;;
68484;SDS011;55472;50.060;21.960;2022-07-23T12:00:58;8.20;;;6.07;;
68484;SDS011;55472;50.060;21.960;2022-07-23T12:03:25;11.37;;;6.27;;
68484;SDS011;55472;50.060;21.960;2022-07-23T12:05:55;7.18;;;6.13;;
68484;SDS011;55472;50.060;21.960;2022-07-23T12:08:23;9.00;;;6.50;;
68484;SDS011;55472;50.060;21.960;2022-07-23T12:10:49;8.35;;;6.03;;
68484;SDS011;55472;50.060;21.960;2022-07-23T12:13:16;9.80;;;6.60;;
68484;SDS011;55472;50.060;21.960;2022-07-23T12:15:46;10.80;;;7.15;;
68484;SDS011;55472;50.060;21.960;2022-07-23T12:18:19;11.68;;;6.60;;
68484;SDS011;55472;50.060;21.960;2022-07-23T12:20:51;9.40;;;6.40;;
68484;SDS011;55472;50.060;21.960;2022-07-23T12:23:22;7.07;;;5.93;;
68484;SDS011;55472;50.060;21.960;2022-07-23T12:25:51;9.40;;;6.65;;
68484;SDS011;55472;50.060;21.960;2022-07-23T12:28:26;10.15;;;6.70;;
68484;SDS011;55472;50.060;21.960;2022-07-23T12:30:55;9.43;;;6.75;;
68484;SDS011;55472;50.060;21.960;2022-07-23T12:33:26;8.48;;;6.18;;
68484;SDS011;55472;50.060;21.960;2022-07-23T12:36:02;8.70;;;6.03;;
68484;SDS011;55472;50.060;21.960;2022-07-23T12:38:37;8.93;;;6.95;;
68484;SDS011;55472;50.060;21.960;2022-07-23T12:41:14;9.45;;;6.38;;
68484;SDS011;55472;50.060;21.960;2022-07-23T12:43:41;12.70;;;7.53;;
68484;SDS011;55472;50.060;21.960;2022-07-23T12:46:14;9.80;;;7.50;;
68484;SDS011;55472;50.060;21.960;2022-07-23T12:51:26;8.15;;;6.25;;
68484;SDS011;55472;50.060;21.960;2022-07-23T12:56:30;9.23;;;6.60;;
68484;SDS011;55472;50.060;21.960;2022-07-23T13:01:33;10.30;;;7.10;;
68484;SDS011;55472;50.060;21.960;2022-07-23T13:04:09;8.68;;;6.85;;
68484;SDS011;55472;50.060;21.960;2022-07-23T13:09:17;13.18;;;7.20;;
68484;SDS011;55472;50.060;21.960;2022-07-23T13:11:45;10.07;;;7.13;;
68484;SDS011;55472;50.060;21.960;2022-07-23T13:14:14;10.43;;;6.47;;
68484;SDS011;55472;50.060;21.960;2022-07-23T13:16:41;7.97;;;6.32;;
68484;SDS011;55472;50.060;21.960;2022-07-23T13:19:08;9.30;;;6.40;;
68484;SDS011;55472;50.060;21.960;2022-07-23T13:21:34;10.75;;;6.55;;
68484;SDS011;55472;50.060;21.960;2022-07-23T13:24:00;10.68;;;6.70;;
68484;SDS011;55472;50.060;21.960;2022-07-23T13:26:26;8.07;;;6.17;;
68484;SDS011;55472;50.060;21.960;2022-07-23T13:28:53;8.35;;;6.05;;
68484;SDS011;55472;50.060;21.960;2022-07-23T13:31:19;9.30;;;6.07;;
68484;SDS011;55472;50.060;21.960;2022-07-23T13:33:45;7.85;;;6.07;;
68484;SDS011;55472;50.060;21.960;2022-07-23T13:36:12;10.10;;;6.05;;
68484;SDS011;55472;50.060;21.960;2022-07-23T13:38:39;7.50;;;5.83;;
68484;SDS011;55472;50.060;21.960;2022-07-23T13:41:05;8.52;;;6.10;;
68484;SDS011;55472;50.060;21.960;2022-07-23T13:43:31;11.88;;;6.18;;
68484;SDS011;55472;50.060;21.960;2022-07-23T13:45:58;7.28;;;6.18;;
68484;SDS011;55472;50.060;21.960;2022-07-23T13:48:24;8.30;;;6.27;;
68484;SDS011;55472;50.060;21.960;2022-07-23T13:50:50;10.53;;;5.90;;
68484;SDS011;55472;50.060;21.960;2022-07-23T13:53:19;8.13;;;6.00;;
68484;SDS011;55472;50.060;21.960;2022-07-23T13:55:47;7.25;;;5.70;;
68484;SDS011;55472;50.060;21.960;2022-07-23T13:58:16;7.95;;;5.97;;
68484;SDS011;55472;50.060;21.960;2022-07-23T14:00:46;11.60;;;6.10;;
68484;SDS011;55472;50.060;21.960;2022-07-23T14:03:16;8.10;;;5.77;;
68484;SDS011;55472;50.060;21.960;2022-07-23T14:05:43;8.88;;;6.00;;
68484;SDS011;55472;50.060;21.960;2022-07-23T14:08:09;9.50;;;5.97;;
68484;SDS011;55472;50.060;21.960;2022-07-23T14:10:36;8.00;;;5.78;;
68484;SDS011;55472;50.060;21.960;2022-07-23T14:13:02;8.10;;;6.00;;
68484;SDS011;55472;50.060;21.960;2022-07-23T14:15:29;9.40;;;6.13;;
68484;SDS011;55472;50.060;21.960;2022-07-23T14:17:56;8.25;;;6.20;;
68484;SDS011;55472;50.060;21.960;2022-07-23T14:20:23;8.68;;;5.78;;
68484;SDS011;55472;50.060;21.960;2022-07-23T14:22:50;12.35;;;7.53;;
68484;SDS011;55472;50.060;21.960;2022-07-23T14:25:16;12.57;;;6.93;;
68484;SDS011;55472;50.060;21.960;2022-07-23T14:27:43;9.03;;;6.40;;
68484;SDS011;55472;50.060;21.960;2022-07-23T14:30:10;11.55;;;6.07;;
68484;SDS011;55472;50.060;21.960;2022-07-23T14:32:38;11.80;;;6.60;;
68484;SDS011;55472;50.060;21.960;2022-07-23T14:35:04;8.45;;;6.63;;
68484;SDS011;55472;50.060;21.960;2022-07-23T14:37:31;10.43;;;6.65;;
68484;SDS011;55472;50.060;21.960;2022-07-23T14:39:57;10.07;;;6.57;;
68484;SDS011;55472;50.060;21.960;2022-07-23T14:42:27;9.98;;;6.10;;
68484;SDS011;55472;50.060;21.960;2022-07-23T14:44:53;10.30;;;6.10;;
68484;SDS011;55472;50.060;21.960;2022-07-23T14:47:19;11.20;;;7.20;;
68484;SDS011;55472;50.060;21.960;2022-07-23T14:49:45;12.83;;;7.37;;
68484;SDS011;55472;50.060;21.960;2022-07-23T14:52:11;9.68;;;6.60;;
68484;SDS011;55472;50.060;21.960;2022-07-23T14:54:37;9.82;;;5.85;;
68484;SDS011;55472;50.060;21.960;2022-07-23T14:57:03;9.68;;;6.68;;
68484;SDS011;55472;50.060;21.960;2022-07-23T14:59:29;10.00;;;6.90;;
68484;SDS011;55472;50.060;21.960;2022-07-23T15:01:56;8.27;;;6.75;;
68484;SDS011;55472;50.060;21.960;2022-07-23T15:04:23;9.27;;;7.05;;
68484;SDS011;55472;50.060;21.960;2022-07-23T15:06:50;8.55;;;6.32;;
68484;SDS011;55472;50.060;21.960;2022-07-23T15:09:16;9.98;;;6.80;;
68484;SDS011;55472;50.060;21.960;2022-07-23T15:11:42;8.83;;;7.00;;
68484;SDS011;55472;50.060;21.960;2022-07-23T15:14:08;10.18;;;6.80;;
68484;SDS011;55472;50.060;21.960;2022-07-23T15:16:34;11.10;;;6.82;;
68484;SDS011;55472;50.060;21.960;2022-07-23T15:19:01;10.13;;;6.10;;
68484;SDS011;55472;50.060;21.960;2022-07-23T15:21:28;10.07;;;6.30;;
68484;SDS011;55472;50.060;21.960;2022-07-23T15:23:55;9.68;;;6.93;;
68484;SDS011;55472;50.060;21.960;2022-07-23T15:26:24;11.25;;;6.80;;
68484;SDS011;55472;50.060;21.960;2022-07-23T15:28:52;8.95;;;6.45;;